Time;durP1;ratioP1;P1;durP2;ratioP2;P2;SDS_P1;SDS_P2;PMS_P1;PMS_P2;Temp;Humidity;BMP_temperature;BMP_pressure;BME280_temperature;BME280_humidity;BME280_pressure;Samples;Min_cycle;Max_cycle;Signal;HPM_P1;HPM_P2
2022/01/23 00:00:16;;;;;;;;;;;;;;;-4.85;83.05;101428.62;5541123;32;35559;-84
2022/01/23 00:03:19;;;;;;;;;;;;;;;-4.80;82.83;101426.87;5541784;32;34740;-84
2022/01/23 00:06:22;;;;;;;;;;;;;;;-4.86;83.08;101426.91;5540983;32;35582;-84
2022/01/23 00:09:25;;;;;;;;;;;;;;;-4.60;81.65;101430.97;5541203;32;34928;-84
2022/01/23 00:12:31;;;;;;;;;;;;;;;-4.63;81.90;101428.41;5540267;32;35132;-84
2022/01/23 00:18:55;;;;;;;;;;;;;;;-4.62;81.48;101430.13;5540819;32;33815;-84
2022/01/23 00:22:02;;;;;;;;;;;;;;;-4.60;81.95;101433.53;5540738;32;35152;-84
2022/01/23 00:32:00;;;;;;;;;;;;;;;-4.50;80.13;101448.06;5520868;32;34182;-84
2022/01/23 00:35:06;;;;;;;;;;;;;;;-4.44;80.00;101444.56;5545377;32;34530;-84
2022/01/23 00:38:10;;;;;;;;;;;;;;;-4.47;79.67;101445.47;5544477;32;36230;-84
2022/01/23 00:41:16;;;;;;;;;;;;;;;-4.41;79.68;101455.72;5540729;32;35347;-84
2022/01/23 00:44:21;;;;;;;;;;;;;;;-4.55;80.44;101452.41;5541703;32;34386;-84
2022/01/23 00:47:24;;;;;;;;;;;;;;;-4.62;80.49;101443.91;5541504;32;34336;-84
2022/01/23 00:50:27;;;;;;;;;;;;;;;-4.63;80.45;101449.06;5541300;32;34454;-84
2022/01/23 00:53:30;;;;;;;;;;;;;;;-4.80;82.73;101447.53;5538597;32;34357;-84
2022/01/23 00:56:33;;;;;;;;;;;;;;;-4.66;81.25;101455.97;5540698;32;35075;-84
2022/01/23 00:59:36;;;;;;;;;;;;;;;-4.60;80.85;101454.19;5541605;32;35229;-84
2022/01/23 01:02:39;;;;;;;;;;;;;;;-4.65;81.97;101452.50;5539175;32;34751;-84
2022/01/23 01:05:42;;;;;;;;;;;;;;;-4.55;80.40;101457.56;5540759;32;34446;-84
2022/01/23 01:08:47;;;;;;;;;;;;;;;-4.46;80.08;101449.75;5541149;32;34549;-84
2022/01/23 01:11:59;;;;;;;;;;;;;;;-4.48;80.04;101443.75;5540876;32;34355;-84
2022/01/23 01:31:47;;;;;;;;;;;;;;;-4.32;79.97;101428.03;5511561;32;813699;-84
2022/01/23 01:35:02;;;;;;;;;;;;;;;-4.13;78.26;101429.56;5538636;32;35711;-83
2022/01/23 01:38:04;;;;;;;;;;;;;;;-4.21;78.42;101423.59;5539726;32;34009;-85
2022/01/23 01:41:07;;;;;;;;;;;;;;;-4.23;78.68;101422.78;5539942;32;34313;-84
2022/01/23 01:44:11;;;;;;;;;;;;;;;-4.26;79.43;101412.50;5538746;32;35733;-84
2022/01/23 01:47:14;;;;;;;;;;;;;;;-4.23;78.74;101422.78;5538783;32;34582;-84
2022/01/23 01:50:21;;;;;;;;;;;;;;;-4.22;78.60;101427.06;5540234;32;34907;-85
2022/01/23 01:53:27;;;;;;;;;;;;;;;-4.22;78.56;101439.97;5542435;32;35225;-84
2022/01/23 01:56:36;;;;;;;;;;;;;;;-4.36;79.45;101432.41;5543252;32;35359;-84
2022/01/23 02:09:35;;;;;;;;;;;;;;;-4.31;78.88;101430.63;5540312;32;36517;-84
2022/01/23 02:13:04;;;;;;;;;;;;;;;-4.16;78.20;101429.59;5539459;32;34709;-84
2022/01/23 02:56:21;;;;;;;;;;;;;;;-4.26;79.04;101433.16;5541596;32;35342;-84
2022/01/23 02:59:29;;;;;;;;;;;;;;;-4.32;80.39;101417.72;5541095;32;34830;-84
2022/01/23 03:02:40;;;;;;;;;;;;;;;-4.29;79.93;101428.91;5541334;32;34511;-84
2022/01/23 03:05:46;;;;;;;;;;;;;;;-4.28;79.76;101424.56;5541399;32;34534;-84
2022/01/23 03:09:23;;;;;;;;;;;;;;;-4.21;79.45;101426.19;5540592;32;34422;-85
2022/01/23 03:15:56;;;;;;;;;;;;;;;-4.18;80.17;101426.16;5540586;32;34806;-84
2022/01/23 03:32:20;;;;;;;;;;;;;;;-3.98;79.22;101437.97;5542002;32;34344;-84
2022/01/23 03:35:22;;;;;;;;;;;;;;;-3.99;79.99;101441.44;5541705;32;34743;-84
2022/01/23 03:38:25;;;;;;;;;;;;;;;-4.03;80.28;101438.91;5541690;32;34786;-84
2022/01/23 03:41:28;;;;;;;;;;;;;;;-3.91;79.65;101430.13;5541157;32;34562;-84
2022/01/23 03:44:36;;;;;;;;;;;;;;;-3.91;79.28;101429.28;5542091;32;34443;-84
2022/01/23 03:47:42;;;;;;;;;;;;;;;-4.09;81.07;101430.37;5541311;32;36284;-84
2022/01/23 03:50:45;;;;;;;;;;;;;;;-4.08;80.58;101427.75;5540993;32;34302;-84
2022/01/23 03:53:48;;;;;;;;;;;;;;;-3.99;80.53;101420.75;5539913;32;34676;-84
2022/01/23 03:56:57;;;;;;;;;;;;;;;-4.07;80.60;101420.88;5540356;32;34500;-84
2022/01/23 03:59:59;;;;;;;;;;;;;;;-3.96;80.34;101418.12;5540115;32;34227;-84
2022/01/23 04:03:03;;;;;;;;;;;;;;;-4.04;80.76;101415.63;5541652;32;34725;-84
2022/01/23 04:06:11;;;;;;;;;;;;;;;-4.09;81.37;101409.69;5541560;32;34834;-85
2022/01/23 04:09:14;;;;;;;;;;;;;;;-4.04;80.83;101419.09;5541917;32;34554;-84
2022/01/23 04:12:56;;;;;;;;;;;;;;;-4.06;81.30;101426.00;5540803;32;35740;-84
2022/01/23 04:15:50;;;;;;;;;;;;;;;-3.90;80.72;101420.66;5536948;32;34049;-84
2022/01/23 04:19:29;;;;;;;;;;;;;;;-3.95;80.98;101425.00;5540066;32;35310;-84
2022/01/23 04:46:52;;;;;;;;;;;;;;;-3.81;78.97;101436.03;5540238;32;35377;-84
2022/01/23 04:59:35;;;;;;;;;;;;;;;-3.94;78.97;101429.31;5539887;32;35177;-84
2022/01/23 05:06:04;;;;;;;;;;;;;;;-4.05;79.13;101426.84;5542336;32;34507;-84
2022/01/23 05:09:07;;;;;;;;;;;;;;;-4.07;79.18;101432.06;5542018;32;34486;-84
2022/01/23 05:12:13;;;;;;;;;;;;;;;-3.97;78.62;101439.69;5541078;32;34620;-84
2022/01/23 05:15:16;;;;;;;;;;;;;;;-3.88;78.08;101444.72;5539616;32;34887;-84
2022/01/23 05:18:21;;;;;;;;;;;;;;;-3.94;78.01;101447.41;5540583;32;35222;-84
2022/01/23 05:24:38;;;;;;;;;;;;;;;-3.90;77.44;101462.84;5539131;32;34614;-85
2022/01/23 05:27:41;;;;;;;;;;;;;;;-4.12;77.95;101467.47;5540257;32;34527;-84
2022/01/23 05:30:46;;;;;;;;;;;;;;;-3.83;76.30;101473.97;5539266;32;34130;-84
2022/01/23 05:33:48;;;;;;;;;;;;;;;-3.90;76.73;101472.34;5539126;32;33882;-84
2022/01/23 05:36:53;;;;;;;;;;;;;;;-3.90;76.12;101475.78;5539239;32;34485;-84
2022/01/23 05:39:59;;;;;;;;;;;;;;;-3.94;75.98;101481.03;5540606;32;34682;-84
2022/01/23 05:43:01;;;;;;;;;;;;;;;-4.04;76.33;101475.97;5540599;32;33980;-84
2022/01/23 05:46:04;;;;;;;;;;;;;;;-3.96;75.87;101493.97;5540304;32;34752;-84
2022/01/23 05:49:08;;;;;;;;;;;;;;;-3.94;76.43;101496.53;5541403;32;34733;-84
2022/01/23 05:52:11;;;;;;;;;;;;;;;-4.06;76.92;101508.72;5542355;32;35072;-84
2022/01/23 05:55:15;;;;;;;;;;;;;;;-4.14;77.26;101504.50;5542721;32;35019;-84
2022/01/23 05:58:20;;;;;;;;;;;;;;;-4.17;77.09;101500.25;5541954;32;34473;-84
2022/01/23 06:01:24;;;;;;;;;;;;;;;-4.19;77.39;101501.97;5542475;32;34296;-84
2022/01/23 06:04:27;;;;;;;;;;;;;;;-4.15;77.70;101503.66;5542720;32;35537;-84
2022/01/23 06:07:30;;;;;;;;;;;;;;;-4.12;76.75;101508.81;5541446;32;34200;-84
2022/01/23 06:10:47;;;;;;;;;;;;;;;-3.86;75.44;101499.88;5542356;32;36292;-84
2022/01/23 06:13:59;;;;;;;;;;;;;;;-3.77;74.77;101499.75;5543182;32;35087;-84
2022/01/23 06:17:01;;;;;;;;;;;;;;;-3.81;74.71;101500.69;5543273;32;35128;-84
2022/01/23 06:20:12;;;;;;;;;;;;;;;-3.59;73.92;101510.75;5542028;32;35429;-84
2022/01/23 06:23:17;;;;;;;;;;;;;;;-3.73;74.82;101516.94;5542286;32;33663;-84
2022/01/23 06:26:26;;;;;;;;;;;;;;;-3.80;75.24;101520.50;5541837;32;34271;-84
2022/01/23 06:29:31;;;;;;;;;;;;;;;-3.66;73.84;101532.41;5542059;32;34879;-84
2022/01/23 06:32:34;;;;;;;;;;;;;;;-3.28;72.65;101533.59;5541425;32;34124;-84
2022/01/23 06:35:37;;;;;;;;;;;;;;;-3.30;73.34;101530.16;5541460;32;35036;-84
2022/01/23 06:38:42;;;;;;;;;;;;;;;-3.31;72.59;101549.16;5540027;32;34737;-85
2022/01/23 06:41:45;;;;;;;;;;;;;;;-3.18;72.21;101542.94;5542758;32;36597;-84
2022/01/23 06:44:47;;;;;;;;;;;;;;;-3.04;71.29;101540.12;5541819;32;34598;-83
2022/01/23 06:47:53;;;;;;;;;;;;;;;-3.04;72.87;101547.06;5542479;32;34323;-83
2022/01/23 06:50:56;;;;;;;;;;;;;;;-3.06;73.41;101552.25;5540386;32;34398;-84
2022/01/23 06:53:58;;;;;;;;;;;;;;;-2.95;72.16;101559.84;5545459;32;34535;-84
2022/01/23 06:57:01;;;;;;;;;;;;;;;-2.94;72.42;101564.16;5545999;32;34751;-84
2022/01/23 07:00:05;;;;;;;;;;;;;;;-2.88;71.47;101551.13;5541440;32;33843;-84
2022/01/23 07:03:10;;;;;;;;;;;;;;;-2.72;70.27;101558.63;5541374;32;34636;-84
2022/01/23 07:06:13;;;;;;;;;;;;;;;-2.79;70.44;101552.69;5543134;32;34530;-84
2022/01/23 07:09:36;;;;;;;;;;;;;;;-2.63;70.06;101553.31;5541109;32;35218;-84
2022/01/23 07:12:47;;;;;;;;;;;;;;;-2.44;68.74;101553.84;5542443;32;34581;-84
2022/01/23 07:15:50;;;;;;;;;;;;;;;-2.53;69.05;101556.59;5543230;32;34355;-84
2022/01/23 07:18:57;;;;;;;;;;;;;;;-2.34;68.22;101551.97;5541420;32;35627;-84
2022/01/23 07:22:00;;;;;;;;;;;;;;;-2.41;68.09;101552.94;5540658;32;35720;-84
2022/01/23 07:25:05;;;;;;;;;;;;;;;-2.33;68.70;101548.47;5541506;32;35337;-85
2022/01/23 07:28:13;;;;;;;;;;;;;;;-2.51;68.83;101558.28;5540263;32;34725;-84
2022/01/23 07:31:42;;;;;;;;;;;;;;;-2.46;68.51;101549.56;5540446;32;35519;-84
2022/01/23 07:34:50;;;;;;;;;;;;;;;-2.52;71.21;101548.78;5541366;32;35658;-84
2022/01/23 07:37:53;;;;;;;;;;;;;;;-2.49;68.76;101546.16;5540709;32;34569;-84
2022/01/23 07:40:56;;;;;;;;;;;;;;;-2.45;68.98;101551.28;5542125;32;34527;-84
2022/01/23 07:43:59;;;;;;;;;;;;;;;-2.36;69.55;101561.50;5541794;32;34503;-84
2022/01/23 07:47:03;;;;;;;;;;;;;;;-2.03;66.47;101553.97;5541789;32;34541;-84
2022/01/23 07:50:08;;;;;;;;;;;;;;;-2.26;67.86;101547.47;5540787;32;35095;-84
2022/01/23 07:53:16;;;;;;;;;;;;;;;-2.04;67.46;101547.94;5540623;32;34839;-84
2022/01/23 07:56:20;;;;;;;;;;;;;;;-1.90;66.48;101555.44;5541677;32;34670;-84
2022/01/23 07:59:23;;;;;;;;;;;;;;;-1.72;65.01;101563.72;5541767;32;34769;-84
2022/01/23 08:02:27;;;;;;;;;;;;;;;-1.86;65.93;101562.25;5541470;32;34953;-84
2022/01/23 08:05:32;;;;;;;;;;;;;;;-1.82;66.34;101563.09;5541619;32;34462;-84
2022/01/23 08:08:36;;;;;;;;;;;;;;;-1.84;65.42;101569.16;5540253;32;34662;-84
2022/01/23 08:11:39;;;;;;;;;;;;;;;-1.83;65.30;101570.88;5540928;32;34930;-84
2022/01/23 08:14:41;;;;;;;;;;;;;;;-1.75;66.31;101572.44;5541373;32;34202;-84
2022/01/23 08:17:44;;;;;;;;;;;;;;;-1.67;65.79;101582.66;5541373;32;34590;-84
2022/01/23 08:20:49;;;;;;;;;;;;;;;-1.52;64.59;101585.84;5541438;32;35541;-84
2022/01/23 08:23:58;;;;;;;;;;;;;;;-1.59;65.09;101596.34;5541548;32;36422;-84
2022/01/23 08:27:01;;;;;;;;;;;;;;;-1.48;65.95;101588.34;5541126;32;34545;-84
2022/01/23 08:30:13;;;;;;;;;;;;;;;-1.16;64.29;101594.59;5542762;32;34611;-84
2022/01/23 08:33:17;;;;;;;;;;;;;;;-1.29;63.58;101593.97;5542561;32;34431;-84
2022/01/23 08:36:20;;;;;;;;;;;;;;;-1.27;63.95;101605.19;5541042;32;34702;-85
2022/01/23 08:39:25;;;;;;;;;;;;;;;-1.07;63.64;101606.53;5541346;32;35250;-84
2022/01/23 08:42:28;;;;;;;;;;;;;;;-1.05;63.87;101596.91;5542285;32;34315;-84
2022/01/23 08:45:30;;;;;;;;;;;;;;;-0.79;63.18;101595.47;5541194;32;34670;-84
2022/01/23 08:48:33;;;;;;;;;;;;;;;-0.76;63.05;101585.00;5541093;32;34630;-84
2022/01/23 08:51:36;;;;;;;;;;;;;;;-0.77;62.72;101580.72;5541103;32;34143;-84
2022/01/23 08:54:39;;;;;;;;;;;;;;;-0.76;62.73;101587.62;5540780;32;35564;-84
2022/01/23 08:57:42;;;;;;;;;;;;;;;-0.85;62.02;101583.47;5540846;32;34476;-84
2022/01/23 09:01:01;;;;;;;;;;;;;;;-0.96;62.45;101595.87;5540904;32;35234;-84
2022/01/23 09:04:05;;;;;;;;;;;;;;;-0.93;62.77;101596.66;5540830;32;35551;-84
2022/01/23 09:07:10;;;;;;;;;;;;;;;-1.02;63.28;101591.66;5541373;32;34766;-84
2022/01/23 09:10:12;;;;;;;;;;;;;;;-0.83;62.63;101599.03;5541477;32;34399;-84
2022/01/23 09:13:52;;;;;;;;;;;;;;;-0.67;62.25;101612.50;5539932;32;34245;-84
2022/01/23 09:16:55;;;;;;;;;;;;;;;-0.53;61.12;101614.78;5541738;32;34880;-84
2022/01/23 09:19:59;;;;;;;;;;;;;;;-0.68;61.04;101616.87;5541483;32;34190;-84
2022/01/23 09:23:01;;;;;;;;;;;;;;;-0.63;62.62;101616.75;5541726;32;34491;-84
2022/01/23 09:26:07;;;;;;;;;;;;;;;-0.29;61.53;101612.47;5540227;32;34753;-84
2022/01/23 09:29:16;;;;;;;;;;;;;;;0.08;59.10;101621.91;5540966;32;34560;-84
2022/01/23 09:32:20;;;;;;;;;;;;;;;-0.16;60.69;101613.84;5541611;32;33966;-84
2022/01/23 09:35:23;;;;;;;;;;;;;;;-0.05;59.02;101611.81;5539995;32;35319;-84
2022/01/23 09:38:25;;;;;;;;;;;;;;;-0.23;59.65;101613.19;5540452;32;35345;-84
2022/01/23 09:41:32;;;;;;;;;;;;;;;-0.25;58.94;101608.88;5540008;32;34990;-84
2022/01/23 09:44:38;;;;;;;;;;;;;;;-0.27;58.94;101610.66;5540074;32;35086;-84
2022/01/23 09:47:40;;;;;;;;;;;;;;;-0.25;59.10;101608.88;5542136;32;35279;-84
2022/01/23 09:50:45;;;;;;;;;;;;;;;-0.46;59.33;101600.75;5540134;32;35510;-84
2022/01/23 09:53:51;;;;;;;;;;;;;;;-0.18;60.04;101605.25;5539626;32;34370;-84
2022/01/23 09:57:03;;;;;;;;;;;;;;;-0.05;58.08;101608.38;5540413;32;34403;-84
2022/01/23 10:00:09;;;;;;;;;;;;;;;-0.20;58.57;101602.66;5539933;32;34682;-83
2022/01/23 10:03:19;;;;;;;;;;;;;;;0.04;59.07;101599.47;5539949;32;34715;-84
2022/01/23 10:06:23;;;;;;;;;;;;;;;0.05;58.09;101601.19;5541062;32;34311;-84
2022/01/23 10:09:27;;;;;;;;;;;;;;;0.22;57.32;101604.16;5542383;32;36694;-83
2022/01/23 10:12:29;;;;;;;;;;;;;;;0.19;57.57;101606.84;5540930;32;35137;-84
2022/01/23 10:15:33;;;;;;;;;;;;;;;0.37;59.26;101608.09;5539837;32;34682;-84
2022/01/23 10:18:36;;;;;;;;;;;;;;;0.48;59.44;101605.19;5539862;32;35037;-84
2022/01/23 10:21:39;;;;;;;;;;;;;;;0.72;57.06;101602.78;5539222;32;33057;-84
2022/01/23 10:24:42;;;;;;;;;;;;;;;0.72;58.06;101613.19;5540131;32;34813;-84
2022/01/23 10:27:50;;;;;;;;;;;;;;;0.66;57.95;101606.41;5538340;32;34909;-83
2022/01/23 10:30:55;;;;;;;;;;;;;;;0.97;56.98;101596.78;5554797;32;34359;-83
2022/01/23 10:33:58;;;;;;;;;;;;;;;0.92;56.11;101597.81;5558579;32;34351;-84
2022/01/23 10:37:03;;;;;;;;;;;;;;;0.90;55.77;101583.97;5561330;32;34530;-84
2022/01/23 10:40:11;;;;;;;;;;;;;;;0.86;54.43;101590.16;5562080;32;35628;-84
2022/01/23 10:49:47;;;;;;;;;;;;;;;1.19;55.05;101597.81;5561582;32;36039;-84
2022/01/23 10:52:53;;;;;;;;;;;;;;;0.99;55.45;101589.78;5560085;32;34296;-84
2022/01/23 10:56:05;;;;;;;;;;;;;;;1.35;54.70;101586.91;5561189;32;34572;-84
2022/01/23 10:59:12;;;;;;;;;;;;;;;1.11;55.04;101589.41;5560679;32;34701;-84
2022/01/23 11:02:21;;;;;;;;;;;;;;;0.98;55.14;101582.87;5560892;32;35099;-83
2022/01/23 11:05:30;;;;;;;;;;;;;;;1.05;56.28;101584.41;5560759;32;35055;-84
2022/01/23 11:08:33;;;;;;;;;;;;;;;0.86;58.11;101590.16;5562493;32;34326;-84
2022/01/23 11:11:40;;;;;;;;;;;;;;;1.10;57.32;101587.69;5561509;32;34604;-84
2022/01/23 11:18:19;;;;;;;;;;;;;;;1.49;55.46;101589.06;5561254;32;34416;-84
2022/01/23 11:21:25;;;;;;;;;;;;;;;1.45;56.57;101587.47;5562088;32;34928;-84
2022/01/23 11:24:48;;;;;;;;;;;;;;;1.17;55.36;101596.19;5560794;32;35144;-84
2022/01/23 11:27:50;;;;;;;;;;;;;;;1.02;55.85;101592.31;5561588;32;34590;-84
2022/01/23 11:30:53;;;;;;;;;;;;;;;1.30;55.51;101589.69;5561318;32;35336;-84
2022/01/23 11:33:56;;;;;;;;;;;;;;;1.15;56.74;101590.16;5559699;32;34577;-84
2022/01/23 11:36:58;;;;;;;;;;;;;;;1.07;55.21;101588.66;5559611;32;34971;-84
2022/01/23 11:40:10;;;;;;;;;;;;;;;0.68;56.81;101582.91;5560801;32;33938;-84
2022/01/23 11:53:52;;;;;;;;;;;;;;;0.22;58.87;101578.12;5560223;32;34559;-84
2022/01/23 11:57:02;;;;;;;;;;;;;;;-0.07;57.34;101574.59;5562412;32;34537;-84
2022/01/23 12:00:08;;;;;;;;;;;;;;;-0.06;58.55;101586.72;5560349;32;34630;-84
2022/01/23 12:03:16;;;;;;;;;;;;;;;-0.02;57.55;101575.31;5562214;32;34757;-84
2022/01/23 12:06:21;;;;;;;;;;;;;;;-0.21;58.98;101576.72;5562133;32;34881;-84
2022/01/23 12:09:24;;;;;;;;;;;;;;;-0.20;58.63;101568.03;5562921;32;34362;-84
2022/01/23 12:19:12;;;;;;;;;;;;;;;-0.26;59.10;101576.84;5560692;32;35241;-84
2022/01/23 12:22:21;;;;;;;;;;;;;;;-0.21;59.48;101574.12;5560964;32;34226;-84
2022/01/23 12:25:24;;;;;;;;;;;;;;;-0.10;59.00;101569.47;5559706;32;34350;-84
2022/01/23 12:28:34;;;;;;;;;;;;;;;0.04;59.48;101573.47;5561526;32;34644;-84
2022/01/23 12:31:37;;;;;;;;;;;;;;;0.27;58.54;101560.66;5560141;32;34315;-84
2022/01/23 12:34:49;;;;;;;;;;;;;;;0.20;58.42;101560.88;5561900;32;34588;-83
2022/01/23 12:38:00;;;;;;;;;;;;;;;0.19;59.18;101566.97;5560953;32;34062;-83
2022/01/23 12:41:26;;;;;;;;;;;;;;;0.23;59.63;101559.03;5560050;32;34804;-84
2022/01/23 12:44:29;;;;;;;;;;;;;;;0.32;59.22;101552.72;5554705;32;34644;-84
2022/01/23 12:47:31;;;;;;;;;;;;;;;0.38;58.80;101551.69;5560692;32;34937;-84
2022/01/23 12:50:46;;;;;;;;;;;;;;;0.45;57.78;101548.00;5560045;32;34439;-84
2022/01/23 12:53:50;;;;;;;;;;;;;;;0.51;58.32;101550.41;5560730;32;34539;-84
2022/01/23 12:56:54;;;;;;;;;;;;;;;0.49;57.77;101539.19;5560106;32;34102;-84
2022/01/23 13:00:01;;;;;;;;;;;;;;;0.65;57.37;101544.78;5560905;32;34625;-84
2022/01/23 13:03:11;;;;;;;;;;;;;;;0.76;57.82;101549.66;5561690;32;35567;-85
2022/01/23 13:06:13;;;;;;;;;;;;;;;0.81;57.47;101542.56;5548608;32;35129;-86
2022/01/23 13:09:23;;;;;;;;;;;;;;;0.87;57.06;101550.19;5563016;32;34635;-84
2022/01/23 13:13:12;;;;;;;;;;;;;;;0.69;58.29;101555.97;5559380;32;35536;-84
2022/01/23 13:16:19;;;;;;;;;;;;;;;0.83;57.18;101559.00;5558710;32;34720;-83
2022/01/23 13:19:58;;;;;;;;;;;;;;;0.82;57.36;101557.31;5560354;32;34352;-83
2022/01/23 13:30:23;;;;;;;;;;;;;;;0.74;58.25;101548.84;5560032;32;35286;-84
2022/01/23 13:33:25;;;;;;;;;;;;;;;0.82;57.59;101557.31;5560726;32;35731;-84
2022/01/23 13:36:28;;;;;;;;;;;;;;;0.87;57.37;101550.19;5560329;32;34645;-83
2022/01/23 13:39:33;;;;;;;;;;;;;;;0.83;57.43;101553.81;5560446;32;34439;-83
2022/01/23 13:52:39;;;;;;;;;;;;;;;0.58;58.91;101570.16;5560557;32;34438;-83
2022/01/23 13:59:12;;;;;;;;;;;;;;;0.66;58.54;101576.88;5560583;32;34207;-84
2022/01/23 14:02:20;;;;;;;;;;;;;;;0.61;58.26;101571.81;5559841;32;34609;-84
2022/01/23 14:05:30;;;;;;;;;;;;;;;0.82;57.96;101572.06;5560918;32;34409;-84
2022/01/23 14:08:35;;;;;;;;;;;;;;;0.74;57.66;101574.91;5559509;32;34254;-84
2022/01/23 14:11:41;;;;;;;;;;;;;;;0.65;58.45;101576.06;5561116;32;34253;-83
2022/01/23 14:14:51;;;;;;;;;;;;;;;0.65;57.76;101570.84;5555118;32;34249;-84
2022/01/23 14:17:59;;;;;;;;;;;;;;;0.62;57.88;101576.97;5560243;32;34447;-83
2022/01/23 14:21:09;;;;;;;;;;;;;;;0.52;59.40;101570.34;5543690;32;35176;-83
2022/01/23 14:24:25;;;;;;;;;;;;;;;0.61;58.71;101570.09;5550082;32;35517;-83
2022/01/23 14:27:30;;;;;;;;;;;;;;;0.57;59.19;101581.47;5564299;32;34596;-83
2022/01/23 14:30:41;;;;;;;;;;;;;;;0.54;59.21;101580.72;5561839;32;34934;-83
2022/01/23 14:33:44;;;;;;;;;;;;;;;0.50;59.41;101577.38;5563633;32;34906;-84
2022/01/23 14:37:06;;;;;;;;;;;;;;;0.46;60.11;101578.34;5558291;32;35096;-84
2022/01/23 14:40:10;;;;;;;;;;;;;;;0.42;60.19;101580.19;5556698;32;34344;-83
2022/01/23 14:43:22;;;;;;;;;;;;;;;0.61;59.88;101583.13;5563169;32;35627;-83
2022/01/23 14:46:26;;;;;;;;;;;;;;;0.37;60.93;101583.81;5562885;32;35323;-84
2022/01/23 14:49:31;;;;;;;;;;;;;;;0.43;60.23;101581.03;5563430;32;34533;-83
2022/01/23 14:52:33;;;;;;;;;;;;;;;0.47;60.01;101582.66;5561876;32;34952;-83
2022/01/23 14:55:37;;;;;;;;;;;;;;;0.42;59.35;101592.34;5560236;32;34690;-83
2022/01/23 14:58:41;;;;;;;;;;;;;;;0.41;59.58;101593.22;5562520;32;34230;-84
2022/01/23 15:01:46;;;;;;;;;;;;;;;0.30;60.33;101602.19;5561890;32;34645;-83
2022/01/23 15:04:49;;;;;;;;;;;;;;;0.24;61.47;101606.72;5563219;32;34644;-84
2022/01/23 15:07:51;;;;;;;;;;;;;;;0.12;62.12;101611.38;5561849;32;34357;-83
2022/01/23 15:10:59;;;;;;;;;;;;;;;-0.11;63.24;101613.75;5562289;32;34170;-84
2022/01/23 15:14:02;;;;;;;;;;;;;;;-0.32;64.13;101616.84;5560133;32;34845;-82
2022/01/23 15:17:06;;;;;;;;;;;;;;;-0.37;65.04;101629.09;5563720;32;34079;-82
2022/01/23 15:20:10;;;;;;;;;;;;;;;-0.54;65.76;101626.09;5561590;32;34854;-82
2022/01/23 15:23:13;;;;;;;;;;;;;;;-0.67;66.83;101631.56;5561823;32;34470;-82
2022/01/23 15:26:16;;;;;;;;;;;;;;;-0.82;67.59;101632.78;5563018;32;34739;-82
2022/01/23 15:29:18;;;;;;;;;;;;;;;-0.95;68.21;101629.59;5561095;32;34368;-83
2022/01/23 15:32:21;;;;;;;;;;;;;;;-0.88;69.02;101639.87;5562810;32;35188;-83
2022/01/23 15:35:25;;;;;;;;;;;;;;;-1.03;69.18;101636.72;5561986;32;35008;-83
2022/01/23 15:38:29;;;;;;;;;;;;;;;-1.18;69.93;101644.84;5561565;32;35511;-84
2022/01/23 15:41:35;;;;;;;;;;;;;;;-1.07;70.38;101644.59;5562015;32;34217;-83
2022/01/23 15:44:38;;;;;;;;;;;;;;;-1.01;69.69;101644.47;5561614;32;35333;-83
2022/01/23 15:47:41;;;;;;;;;;;;;;;-1.06;69.95;101654.94;5560782;32;35517;-83
2022/01/23 15:50:44;;;;;;;;;;;;;;;-1.01;69.50;101655.72;5561066;32;36713;-84
2022/01/23 15:53:46;;;;;;;;;;;;;;;-1.12;70.08;101662.88;5556489;32;34290;-83
2022/01/23 15:56:52;;;;;;;;;;;;;;;-1.40;71.33;101664.31;5561028;32;34290;-83
2022/01/23 15:59:54;;;;;;;;;;;;;;;-1.30;72.02;101670.19;5561046;32;34539;-82
2022/01/23 16:03:00;;;;;;;;;;;;;;;-1.08;71.43;101669.75;5561977;32;34705;-82
2022/01/23 16:06:03;;;;;;;;;;;;;;;-1.32;72.37;101674.56;5560525;32;35622;-82
2022/01/23 16:09:07;;;;;;;;;;;;;;;-1.47;72.74;101667.06;5560101;32;34552;-82
2022/01/23 16:12:10;;;;;;;;;;;;;;;-1.49;73.28;101672.28;5560450;32;34143;-83
2022/01/23 16:15:33;;;;;;;;;;;;;;;-1.28;72.32;101668.41;5560738;32;34248;-82
2022/01/23 16:18:36;;;;;;;;;;;;;;;-1.46;72.91;101676.56;5560404;32;36189;-83
2022/01/23 16:21:38;;;;;;;;;;;;;;;-1.50;73.33;101664.50;5560633;32;34973;-83
2022/01/23 16:24:44;;;;;;;;;;;;;;;-1.56;73.43;101676.75;5561348;32;35576;-82
2022/01/23 16:27:46;;;;;;;;;;;;;;;-1.58;73.50;101673.31;5560801;32;34331;-84
2022/01/23 16:30:54;;;;;;;;;;;;;;;-1.51;73.15;101668.00;5560542;32;34790;-83
2022/01/23 16:33:59;;;;;;;;;;;;;;;-1.43;72.75;101679.94;5560672;32;35029;-83
2022/01/23 16:37:03;;;;;;;;;;;;;;;-1.44;72.61;101677.41;5560402;32;34043;-82
2022/01/23 16:40:06;;;;;;;;;;;;;;;-1.46;72.75;101685.19;5562554;32;34438;-82
2022/01/23 16:43:13;;;;;;;;;;;;;;;-1.61;73.19;101691.53;5562835;32;35639;-82
2022/01/23 16:46:16;;;;;;;;;;;;;;;-1.58;73.39;101686.28;5561029;32;34977;-83
2022/01/23 16:49:22;;;;;;;;;;;;;;;-1.74;74.05;101698.69;5560906;32;34426;-82
2022/01/23 16:52:24;;;;;;;;;;;;;;;-1.98;74.83;101699.13;5563027;32;35186;-83
2022/01/23 16:55:29;;;;;;;;;;;;;;;-1.95;75.19;101707.72;5560910;32;34297;-83
2022/01/23 16:58:35;;;;;;;;;;;;;;;-1.73;74.51;101707.34;5560972;32;34156;-83
2022/01/23 17:01:38;;;;;;;;;;;;;;;-1.77;74.66;101703.09;5561449;32;34589;-83
2022/01/23 17:04:43;;;;;;;;;;;;;;;-1.91;75.43;101705.91;5562243;32;34748;-82
2022/01/23 17:08:04;;;;;;;;;;;;;;;-1.94;75.47;101704.22;5561518;32;34647;-83
2022/01/23 17:11:06;;;;;;;;;;;;;;;-1.93;76.41;101703.34;5559864;32;34353;-82
2022/01/23 17:14:09;;;;;;;;;;;;;;;-2.10;76.29;101702.81;5559105;32;34145;-82
2022/01/23 17:17:15;;;;;;;;;;;;;;;-1.83;74.96;101696.28;5559485;32;34473;-83
2022/01/23 17:20:20;;;;;;;;;;;;;;;-1.90;75.15;101700.72;5560168;32;34747;-82
2022/01/23 17:23:23;;;;;;;;;;;;;;;-1.97;76.15;101693.91;5563575;32;34341;-83
2022/01/23 17:26:27;;;;;;;;;;;;;;;-2.21;76.81;101706.41;5561196;32;34750;-83
2022/01/23 17:29:30;;;;;;;;;;;;;;;-2.05;75.96;101711.34;5560256;32;34752;-82
2022/01/23 17:32:32;;;;;;;;;;;;;;;-2.25;76.67;101709.94;5559202;32;34604;-83
2022/01/23 17:35:49;;;;;;;;;;;;;;;-2.17;76.50;101720.19;5559281;32;34556;-82
2022/01/23 17:38:52;;;;;;;;;;;;;;;-2.28;77.33;101728.13;5559701;32;34480;-82
2022/01/23 17:41:54;;;;;;;;;;;;;;;-2.44;77.55;101724.91;5559261;32;34518;-82
2022/01/23 17:44:59;;;;;;;;;;;;;;;-2.55;78.35;101727.66;5561464;32;34256;-83
2022/01/23 17:51:24;;;;;;;;;;;;;;;-2.73;79.29;101733.09;5561966;32;34175;-82
2022/01/23 17:54:29;;;;;;;;;;;;;;;-2.83;79.97;101733.22;5561398;32;34851;-82
2022/01/23 17:57:32;;;;;;;;;;;;;;;-2.39;78.04;101736.06;5561759;32;34751;-82
2022/01/23 18:00:35;;;;;;;;;;;;;;;-2.50;78.30;101749.19;5560861;32;34607;-82
2022/01/23 18:03:39;;;;;;;;;;;;;;;-2.45;78.13;101748.28;5561609;32;34387;-83
2022/01/23 18:06:45;;;;;;;;;;;;;;;-2.51;78.31;101759.56;5561690;32;35305;-83
2022/01/23 18:09:49;;;;;;;;;;;;;;;-2.62;78.61;101766.63;5561512;32;34563;-83
2022/01/23 18:12:56;;;;;;;;;;;;;;;-2.80;79.31;101759.09;5560964;32;34687;-83
2022/01/23 18:15:58;;;;;;;;;;;;;;;-2.90;80.34;101762.69;5561634;32;34346;-83
2022/01/23 18:19:04;;;;;;;;;;;;;;;-2.75;80.21;101773.69;5563327;32;34951;-83
2022/01/23 18:22:26;;;;;;;;;;;;;;;-2.69;79.53;101777.06;5562159;32;34210;-83
2022/01/23 18:25:30;;;;;;;;;;;;;;;-2.70;79.62;101775.34;5562033;32;34274;-83
2022/01/23 18:28:36;;;;;;;;;;;;;;;-2.73;79.75;101774.53;5563553;32;35392;-83
2022/01/23 18:31:40;;;;;;;;;;;;;;;-2.51;78.69;101780.31;5564370;32;34720;-82
2022/01/23 18:34:46;;;;;;;;;;;;;;;-2.62;78.96;101785.63;5564130;32;35651;-83
2022/01/23 18:37:49;;;;;;;;;;;;;;;-2.63;79.31;101789.09;5562484;32;34108;-83
2022/01/23 18:40:52;;;;;;;;;;;;;;;-2.20;77.63;101785.94;5562576;32;34446;-83
2022/01/23 18:43:54;;;;;;;;;;;;;;;-2.34;77.93;101796.47;5562157;32;35020;-83
2022/01/23 18:46:58;;;;;;;;;;;;;;;-2.32;78.11;101806.84;5561634;32;34483;-83
2022/01/23 18:50:07;;;;;;;;;;;;;;;-2.46;78.63;101804.41;5561495;32;34878;-83
2022/01/23 18:53:24;;;;;;;;;;;;;;;-2.44;78.36;101813.03;5561756;32;34549;-83
2022/01/23 18:56:32;;;;;;;;;;;;;;;-2.44;78.42;101832.94;5561890;32;34652;-84
2022/01/23 18:59:47;;;;;;;;;;;;;;;-2.61;78.99;101833.97;5561421;32;34421;-84
2022/01/23 19:02:58;;;;;;;;;;;;;;;-2.78;79.80;101835.94;5561139;32;34100;-83